Time;durP1;ratioP1;P1;durP2;ratioP2;P2;SDS_P1;SDS_P2;PMS_P1;PMS_P2;Temp;Humidity;BMP_temperature;BMP_pressure;BME280_temperature;BME280_humidity;BME280_pressure;Samples;Min_cycle;Max_cycle;Signal;HPM_P1;HPM_P2
2021/03/22 00:00:25;;;;;;;18.30;10.60;;;;;;;1.68;82.11;99626.78;5095576;28;20364;-71
2021/03/22 00:02:51;;;;;;;22.90;14.48;;;;;;;1.31;82.16;99559.69;5095023;28;20032;-71
2021/03/22 00:05:18;;;;;;;24.40;14.57;;;;;;;1.67;82.41;99623.31;5095542;28;20044;-70
2021/03/22 00:07:43;;;;;;;21.80;13.40;;;;;;;1.23;82.06;99552.97;5095003;28;20043;-70
2021/03/22 00:10:09;;;;;;;23.17;14.15;;;;;;;1.62;82.39;99625.22;5095174;28;20115;-70
2021/03/22 00:12:34;;;;;;;16.77;9.23;;;;;;;1.61;82.44;99623.50;5095015;28;20039;-70
2021/03/22 00:15:00;;;;;;;20.85;11.90;;;;;;;1.62;82.85;99617.34;5095090;28;20036;-70
2021/03/22 00:17:26;;;;;;;24.00;15.77;;;;;;;1.60;82.45;99611.28;5094905;28;20548;-69
2021/03/22 00:19:52;;;;;;;21.35;13.88;;;;;;;1.44;82.38;99568.00;5095201;28;20036;-69
2021/03/22 00:22:17;;;;;;;23.60;15.27;;;;;;;1.44;82.76;99575.91;5094911;28;20428;-70
2021/03/22 00:24:43;;;;;;;20.67;13.02;;;;;;;1.57;83.14;99594.75;5094703;28;20032;-70
2021/03/22 00:27:08;;;;;;;23.85;13.75;;;;;;;1.47;83.04;99567.94;5095258;28;20024;-69
2021/03/22 00:29:34;;;;;;;26.50;15.45;;;;;;;1.59;83.13;99604.31;5094571;28;20368;-70
2021/03/22 00:31:59;;;;;;;23.88;15.02;;;;;;;1.65;83.01;99604.09;5094872;28;20416;-71
2021/03/22 00:34:25;;;;;;;22.63;15.43;;;;;;;1.61;83.15;99597.22;5094435;28;20077;-71
2021/03/22 00:36:52;;;;;;;25.15;16.13;;;;;;;1.65;83.01;99598.84;5093581;28;20430;-71
2021/03/22 00:39:18;;;;;;;13.30;8.25;;;;;;;1.48;83.32;99567.00;5094562;28;20036;-68
2021/03/22 00:41:43;;;;;;;24.55;15.75;;;;;;;1.65;83.49;99584.84;5094331;28;20528;-70
2021/03/22 00:44:09;;;;;;;22.05;14.25;;;;;;;1.61;83.45;99580.59;5094511;28;20601;-69
2021/03/22 00:46:34;;;;;;;23.38;14.80;;;;;;;1.61;83.80;99570.94;5093093;28;20076;-71
2021/03/22 00:49:00;;;;;;;25.73;16.05;;;;;;;1.65;83.66;99571.69;5094470;28;20032;-67
2021/03/22 00:51:25;;;;;;;25.30;15.98;;;;;;;1.57;84.09;99563.22;5094086;28;20113;-70
2021/03/22 00:53:51;;;;;;;23.85;15.07;;;;;;;1.64;83.97;99570.84;5093018;28;20062;-69
2021/03/22 00:56:16;;;;;;;26.27;16.13;;;;;;;1.59;84.08;99551.72;5094316;28;20035;-70
2021/03/22 00:58:42;;;;;;;20.45;13.70;;;;;;;1.70;83.61;99549.56;5093962;28;20036;-69
2021/03/22 01:01:07;;;;;;;25.42;15.75;;;;;;;1.68;83.82;99545.28;5094386;28;20524;-69
2021/03/22 01:03:35;;;;;;;16.17;10.85;;;;;;;1.36;83.82;99493.84;5092981;28;20109;-68
2021/03/22 01:06:02;;;;;;;25.27;16.23;;;;;;;1.68;84.07;99550.56;5094076;28;20098;-68
2021/03/22 01:08:30;;;;;;;22.95;15.23;;;;;;;1.61;84.28;99543.78;5093963;28;20032;-70
2021/03/22 01:10:59;;;;;;;22.33;14.68;;;;;;;1.53;83.86;99515.13;5093979;28;20060;-67
2021/03/22 01:13:24;;;;;;;23.85;15.20;;;;;;;1.72;84.10;99531.13;5093922;28;20479;-71
2021/03/22 01:15:51;;;;;;;23.55;15.00;;;;;;;1.70;83.99;99539.06;5093816;28;20037;-71
2021/03/22 01:18:20;;;;;;;29.95;15.98;;;;;;;1.59;83.99;99509.66;5093977;28;20048;-71
2021/03/22 01:20:56;;;;;;;24.17;15.25;;;;;;;1.74;83.90;99534.56;5093570;28;20036;-70
2021/03/22 01:23:22;;;;;;;25.15;15.32;;;;;;;1.75;83.91;99530.16;5093997;28;20060;-70
2021/03/22 01:25:48;;;;;;;27.17;15.82;;;;;;;1.57;83.97;99493.09;5093398;28;20149;-68
2021/03/22 01:28:16;;;;;;;27.48;15.85;;;;;;;1.86;83.58;99517.50;5092521;28;20036;-69
2021/03/22 01:30:50;;;;;;;24.65;16.17;;;;;;;1.80;83.50;99515.06;5091947;28;20032;-69
2021/03/22 01:33:19;;;;;;;23.02;14.85;;;;;;;1.86;83.48;99512.22;5092371;28;20036;-68
2021/03/22 01:35:45;;;;;;;23.02;15.23;;;;;;;1.70;83.68;99491.75;5093134;28;20027;-68
2021/03/22 01:38:11;;;;;;;23.33;14.55;;;;;;;1.87;83.59;99501.66;5092355;28;20032;-68
2021/03/22 01:40:46;;;;;;;22.35;13.23;;;;;;;1.86;83.30;99506.97;5093461;28;20485;-69
2021/03/22 01:43:32;;;;;;;23.60;14.10;;;;;;;1.70;83.69;99483.84;5093786;28;20036;-68
2021/03/22 01:45:57;;;;;;;24.92;14.07;;;;;;;1.93;83.24;99504.06;5093470;28;20042;-69
2021/03/22 01:48:23;;;;;;;21.45;14.38;;;;;;;1.88;83.16;99497.25;5093355;28;20028;-69
2021/03/22 01:50:49;;;;;;;21.92;14.13;;;;;;;1.75;82.95;99469.69;5093163;28;20127;-68
2021/03/22 01:53:16;;;;;;;21.65;14.45;;;;;;;1.83;82.98;99472.88;5093735;28;20119;-71
2021/03/22 01:55:41;;;;;;;23.52;14.27;;;;;;;1.68;83.04;99440.13;5092924;28;20044;-70
2021/03/22 01:58:07;;;;;;;20.40;13.73;;;;;;;1.80;83.05;99460.72;5075297;28;20038;-70
2021/03/22 02:00:37;;;;;;;20.40;14.00;;;;;;;1.78;82.91;99448.53;5092806;28;20035;-71
2021/03/22 02:03:12;;;;;;;24.00;14.50;;;;;;;2.00;82.87;99488.91;5093458;28;20049;-71
2021/03/22 02:05:41;;;;;;;22.30;13.80;;;;;;;2.00;82.65;99475.75;5092949;28;20085;-70
2021/03/22 02:08:13;;;;;;;19.65;11.85;;;;;;;1.95;82.56;99486.44;5093106;28;20032;-70
2021/03/22 02:10:41;;;;;;;24.42;13.50;;;;;;;1.94;82.69;99487.38;5092804;28;20032;-70
2021/03/22 02:13:07;;;;;;;22.05;12.55;;;;;;;1.97;82.40;99483.75;5091718;28;20509;-70
2021/03/22 02:15:34;;;;;;;19.80;12.77;;;;;;;1.93;82.64;99487.41;5092989;28;20043;-71
2021/03/22 02:18:15;;;;;;;20.27;13.45;;;;;;;1.91;82.72;99481.34;5093077;28;20059;-71
2021/03/22 02:21:07;;;;;;;22.40;13.00;;;;;;;1.94;82.48;99474.22;5092727;28;20059;-69
2021/03/22 02:23:57;;;;;;;20.33;12.85;;;;;;;1.98;82.58;99478.44;5092589;28;20036;-70
2021/03/22 02:26:39;;;;;;;20.60;13.35;;;;;;;1.98;82.36;99482.84;5092734;28;20497;-69
2021/03/22 02:29:23;;;;;;;19.40;11.85;;;;;;;2.01;82.33;99488.81;5092955;28;20024;-68
2021/03/22 02:32:07;;;;;;;19.25;12.10;;;;;;;1.97;82.36;99481.13;5091260;28;20031;-70
2021/03/22 02:34:41;;;;;;;18.40;12.55;;;;;;;1.88;82.35;99457.78;5092550;28;20028;-70
2021/03/22 02:37:20;;;;;;;20.08;12.60;;;;;;;2.02;82.29;99481.78;5093176;28;20498;-71
2021/03/22 02:39:55;;;;;;;19.92;12.93;;;;;;;2.18;81.63;99488.19;5092586;28;20076;-71
2021/03/22 02:42:22;;;;;;;18.40;12.15;;;;;;;2.09;81.99;99491.19;5093109;28;20039;-71
2021/03/22 02:44:48;;;;;;;18.08;12.20;;;;;;;2.01;81.69;99464.31;5092364;28;20040;-69
2021/03/22 02:47:22;;;;;;;19.15;11.85;;;;;;;2.09;81.72;99493.81;5091620;28;20059;-69
2021/03/22 02:49:50;;;;;;;19.65;12.35;;;;;;;2.06;81.67;99487.81;5092313;28;20035;-70
2021/03/22 02:52:56;;;;;;;19.27;12.50;;;;;;;2.13;81.14;99484.91;5092502;28;20538;-70
2021/03/22 02:55:40;;;;;;;19.35;12.48;;;;;;;2.11;81.54;99488.50;5093089;28;20042;-68
2021/03/22 02:58:08;;;;;;;19.27;12.13;;;;;;;1.94;81.84;99468.09;5092575;28;20056;-68
2021/03/22 03:00:44;;;;;;;17.75;11.45;;;;;;;2.04;81.21;99493.16;5092273;28;20020;-76
2021/03/22 03:03:13;;;;;;;17.80;12.32;;;;;;;2.10;81.10;99489.41;5092600;28;20040;-68
2021/03/22 03:05:40;;;;;;;19.92;12.45;;;;;;;2.06;81.25;99491.31;5092294;28;20099;-69
2021/03/22 03:08:12;;;;;;;18.48;12.02;;;;;;;2.07;81.63;99506.16;5092595;28;20097;-69
2021/03/22 03:10:38;;;;;;;19.77;12.05;;;;;;;2.05;81.54;99497.47;5092186;28;20032;-70
2021/03/22 03:13:05;;;;;;;22.10;12.68;;;;;;;2.00;81.25;99505.53;5092783;28;20040;-70
2021/03/22 03:15:31;;;;;;;19.48;12.50;;;;;;;1.93;81.21;99495.28;5092583;28;20479;-70
2021/03/22 03:17:56;;;;;;;19.45;12.25;;;;;;;2.02;81.16;99487.06;5090558;28;20076;-70
2021/03/22 03:20:29;;;;;;;21.00;12.27;;;;;;;2.15;80.81;99504.13;5092224;28;20063;-68
2021/03/22 03:22:56;;;;;;;;;;;;;;;2.18;80.28;99490.84;5092724;28;20036;-70
2021/03/22 03:25:23;;;;;;;18.67;11.55;;;;;;;2.01;80.28;99473.03;5092665;28;19954;-68
2021/03/22 03:27:49;;;;;;;18.00;11.63;;;;;;;2.00;80.54;99467.84;5092304;28;20036;-70
2021/03/22 03:30:20;;;;;;;20.17;12.35;;;;;;;2.12;80.58;99492.81;5092265;28;20532;-70
2021/03/22 03:32:46;;;;;;;19.25;11.43;;;;;;;2.04;80.66;99469.47;5092082;28;20060;-68
2021/03/22 03:35:12;;;;;;;19.05;11.27;;;;;;;2.25;79.88;99489.69;5092141;28;20066;-67
2021/03/22 03:37:39;;;;;;;16.70;11.25;;;;;;;2.09;80.20;99464.88;5094369;28;20043;-70
2021/03/22 03:40:16;;;;;;;18.48;11.88;;;;;;;2.01;80.21;99466.94;5095842;28;20035;-69
2021/03/22 03:42:42;;;;;;;18.90;12.05;;;;;;;2.00;80.39;99457.31;5094148;28;20502;-69
2021/03/22 03:45:12;;;;;;;17.38;11.02;;;;;;;2.11;80.18;99484.09;5095881;28;20059;-70
2021/03/22 03:47:45;;;;;;;20.88;11.90;;;;;;;2.21;79.86;99481.97;5095549;28;20039;-72
2021/03/22 03:50:18;;;;;;;18.00;11.68;;;;;;;2.10;80.43;99484.16;5095718;28;20035;-68
2021/03/22 03:52:44;;;;;;;19.27;12.93;;;;;;;2.03;80.12;99470.38;5095366;28;20032;-69
2021/03/22 03:55:11;;;;;;;18.42;11.93;;;;;;;2.14;80.23;99496.28;5094227;28;20031;-69
2021/03/22 03:57:37;;;;;;;20.50;11.98;;;;;;;2.16;80.05;99503.19;5095685;28;20494;-69
2021/03/22 04:00:10;;;;;;;18.38;12.05;;;;;;;1.92;79.90;99456.75;5094152;28;20043;-69
2021/03/22 04:02:36;;;;;;;19.63;12.75;;;;;;;2.13;80.19;99500.69;5095440;28;20112;-69
2021/03/22 04:05:05;;;;;;;20.95;12.95;;;;;;;1.99;80.16;99479.28;5095052;28;20090;-69
2021/03/22 04:07:30;;;;;;;19.38;11.93;;;;;;;2.12;80.36;99513.88;5095126;28;20028;-70
2021/03/22 04:09:56;;;;;;;20.73;12.75;;;;;;;2.12;80.43;99509.47;5094897;28;20036;-69
2021/03/22 04:12:21;;;;;;;19.85;12.75;;;;;;;2.14;80.42;99512.06;5095419;28;20379;-69
2021/03/22 04:14:47;;;;;;;20.48;12.52;;;;;;;2.01;80.17;99496.72;5094994;28;20410;-69
2021/03/22 04:17:12;;;;;;;17.30;12.00;;;;;;;2.20;79.96;99512.69;5093726;28;20402;-70
2021/03/22 04:19:38;;;;;;;20.58;12.00;;;;;;;2.13;80.09;99511.22;5095108;28;20459;-70
2021/03/22 04:22:04;;;;;;;20.55;12.05;;;;;;;2.01;80.29;99485.34;5094683;28;20040;-70
2021/03/22 04:24:29;;;;;;;18.25;12.02;;;;;;;2.22;79.86;99515.25;5094764;28;20437;-70
2021/03/22 04:26:55;;;;;;;19.35;12.38;;;;;;;1.96;80.25;99490.78;5094534;28;20070;-69
2021/03/22 04:29:20;;;;;;;21.20;13.02;;;;;;;2.02;80.06;99494.94;5094812;28;20031;-69
2021/03/22 04:31:46;;;;;;;19.65;12.80;;;;;;;1.94;80.25;99474.22;5092641;28;20040;-70
2021/03/22 04:34:13;;;;;;;20.77;12.38;;;;;;;2.23;79.99;99517.84;5094734;28;20036;-70
2021/03/22 04:36:38;;;;;;;20.88;13.02;;;;;;;2.09;79.76;99496.44;5093369;28;20036;-69
2021/03/22 04:39:05;;;;;;;18.90;12.15;;;;;;;2.21;79.60;99517.03;5094613;28;20043;-69
2021/03/22 04:41:31;;;;;;;21.13;12.23;;;;;;;2.16;78.92;99523.38;5094825;28;20107;-68
2021/03/22 04:43:56;;;;;;;18.55;11.38;;;;;;;1.99;79.04;99498.56;5094550;28;20119;-69
2021/03/22 04:46:22;;;;;;;16.92;11.60;;;;;;;2.11;78.51;99527.94;5093381;28;20429;-68
2021/03/22 04:48:48;;;;;;;17.13;10.82;;;;;;;2.15;77.93;99533.06;5093838;28;20493;-69
2021/03/22 04:51:13;;;;;;;18.23;10.93;;;;;;;2.14;77.65;99538.38;5094610;28;20046;-70
2021/03/22 04:53:39;;;;;;;16.00;10.10;;;;;;;2.22;76.80;99544.19;5094316;28;20390;-70
2021/03/22 04:56:07;;;;;;;17.77;10.95;;;;;;;2.18;76.98;99542.59;5076316;28;20376;-70
2021/03/22 04:58:36;;;;;;;15.80;10.35;;;;;;;2.14;76.84;99539.25;5094397;28;20082;-70
2021/03/22 05:01:04;;;;;;;16.15;11.23;;;;;;;2.16;77.01;99532.13;5093980;28;20050;-69
2021/03/22 05:03:29;;;;;;;17.27;10.23;;;;;;;2.20;76.69;99540.75;5093034;28;20039;-69
2021/03/22 05:05:55;;;;;;;18.35;11.57;;;;;;;1.82;77.40;99476.41;5093883;28;20399;-69
2021/03/22 05:08:23;;;;;;;18.50;11.63;;;;;;;1.88;77.67;99489.34;5094199;28;20039;-68
2021/03/22 05:10:50;;;;;;;22.23;12.23;;;;;;;1.99;77.84;99518.75;5092585;28;20565;-70
2021/03/22 05:13:18;;;;;;;18.08;11.15;;;;;;;2.07;78.03;99544.78;5094042;28;20097;-69
2021/03/22 05:15:44;;;;;;;18.15;11.80;;;;;;;2.02;78.55;99544.94;5092604;28;20479;-75
2021/03/22 05:18:11;;;;;;;19.30;11.77;;;;;;;2.00;78.27;99537.09;5093903;28;20048;-68
2021/03/22 05:20:46;;;;;;;19.33;12.35;;;;;;;2.06;78.62;99540.44;5093737;28;20406;-70
2021/03/22 05:23:15;;;;;;;20.08;12.20;;;;;;;1.92;78.17;99520.72;5094008;28;20051;-71
2021/03/22 05:25:41;;;;;;;19.23;12.50;;;;;;;2.09;78.25;99554.31;5093591;28;20103;-71
2021/03/22 05:28:09;;;;;;;22.23;12.23;;;;;;;1.96;78.39;99527.63;5092401;28;20435;-71
2021/03/22 05:30:35;;;;;;;19.70;12.07;;;;;;;2.10;78.47;99561.28;5093559;28;20103;-70
2021/03/22 05:33:04;;;;;;;17.67;11.70;;;;;;;2.17;78.03;99559.31;5093318;28;20043;-70
2021/03/22 05:35:31;;;;;;;19.73;12.05;;;;;;;2.04;77.83;99540.50;5093586;28;20382;-70
2021/03/22 05:37:57;;;;;;;22.15;11.98;;;;;;;2.17;78.25;99564.56;5093692;28;20173;-70
2021/03/22 05:40:31;;;;;;;20.05;12.02;;;;;;;2.11;77.37;99536.69;5092534;28;20382;-70
2021/03/22 05:43:41;;;;;;;17.88;11.68;;;;;;;2.37;76.94;99567.31;5093249;28;20027;-70
2021/03/22 05:46:06;;;;;;;19.42;11.55;;;;;;;2.27;77.17;99574.69;5064018;28;20060;-71
2021/03/22 05:48:40;;;;;;;22.58;13.23;;;;;;;2.23;77.88;99573.09;5093417;28;20115;-74
2021/03/22 05:51:25;;;;;;;23.92;13.27;;;;;;;2.27;77.98;99571.22;5092879;28;20065;-71
2021/03/22 05:53:53;;;;;;;20.50;13.05;;;;;;;2.46;77.62;99571.38;5092859;28;20555;-73
2021/03/22 05:56:50;;;;;;;20.77;12.98;;;;;;;2.47;77.62;99567.81;5093328;28;20070;-72
2021/03/22 05:59:43;;;;;;;20.15;12.63;;;;;;;2.61;77.17;99580.47;5092334;28;20493;-70
2021/03/22 06:02:38;;;;;;;19.58;12.75;;;;;;;2.56;76.42;99559.56;5093109;28;20040;-75
2021/03/22 06:05:32;;;;;;;19.33;11.98;;;;;;;2.53;76.27;99557.94;5092813;28;20028;-70
2021/03/22 06:08:01;;;;;;;;;;;;;;;2.72;76.00;99584.41;5093089;28;20032;-73
2021/03/22 06:10:38;;;;;;;18.77;12.40;;;;;;;2.82;75.83;99571.75;5091834;28;20416;-71
2021/03/22 06:13:05;;;;;;;19.00;11.60;;;;;;;2.93;74.63;99581.84;5092962;28;20435;-71
2021/03/22 06:15:48;;;;;;;20.13;12.02;;;;;;;2.90;74.35;99587.25;5092779;28;20043;-71
2021/03/22 06:18:20;;;;;;;22.00;12.75;;;;;;;2.92;74.59;99588.03;5091161;28;20051;-70
2021/03/22 06:20:46;;;;;;;21.00;12.77;;;;;;;2.90;73.53;99592.53;5092699;28;20094;-72
2021/03/22 06:23:26;;;;;;;19.90;11.23;;;;;;;2.88;72.69;99585.50;5091334;28;20063;-75
2021/03/22 06:25:53;;;;;;;19.05;11.20;;;;;;;2.62;72.37;99574.28;5092688;28;20476;-75
2021/03/22 06:28:21;;;;;;;19.88;11.68;;;;;;;2.78;71.98;99604.38;5108025;28;20032;-75
2021/03/22 06:31:11;;;;;;;16.55;10.15;;;;;;;2.78;71.02;99604.38;5113016;28;20063;-75
2021/03/22 06:33:41;;;;;;;17.40;10.07;;;;;;;2.82;70.22;99609.47;5113059;28;20032;-76
2021/03/22 06:36:09;;;;;;;15.50;9.20;;;;;;;2.85;69.86;99588.28;5112951;28;20465;-73
2021/03/22 06:38:35;;;;;;;14.45;8.98;;;;;;;3.24;67.89;99607.81;5112825;28;20054;-74
2021/03/22 06:41:41;;;;;;;13.95;8.88;;;;;;;3.35;67.55;99616.16;5094602;28;20462;-71
2021/03/22 06:44:17;;;;;;;15.63;8.57;;;;;;;3.58;66.50;99612.59;5112617;28;20039;-73
2021/03/22 06:46:56;;;;;;;14.13;8.45;;;;;;;3.65;65.21;99620.16;5112982;28;20032;-74
2021/03/22 06:49:29;;;;;;;12.15;7.80;;;;;;;3.60;64.61;99585.22;5112892;28;20161;-73
2021/03/22 06:52:08;;;;;;;15.57;8.18;;;;;;;3.88;64.63;99616.56;5097617;28;20031;-73
2021/03/22 06:54:41;;;;;;;12.65;7.35;;;;;;;3.99;63.14;99629.28;5111791;28;20069;-70
2021/03/22 06:57:27;;;;;;;;;;;;;;;4.08;62.97;99622.75;5085211;28;20036;-72
2021/03/22 07:00:15;;;;;;;11.35;6.03;;;;;;;4.22;60.56;99634.41;5093942;28;19907;-73
2021/03/22 07:02:50;;;;;;;11.40;7.30;;;;;;;4.20;61.24;99627.50;5094101;28;20035;-71
2021/03/22 07:05:26;;;;;;;12.23;6.75;;;;;;;4.36;60.35;99631.19;5112747;28;20038;-72
2021/03/22 07:08:05;;;;;;;12.13;6.70;;;;;;;4.32;59.93;99593.47;5112668;28;20028;-73
2021/03/22 07:10:36;;;;;;;12.05;6.78;;;;;;;4.54;59.35;99622.44;5113279;28;20046;-72
2021/03/22 07:13:14;;;;;;;11.27;5.90;;;;;;;4.44;58.69;99604.41;5116597;28;20032;-76
2021/03/22 07:15:40;;;;;;;10.65;6.18;;;;;;;4.65;58.50;99635.16;5116483;28;20478;-73
2021/03/22 07:18:30;;;;;;;9.82;4.70;;;;;;;4.74;57.64;99640.00;5116535;28;20105;-72
2021/03/22 07:21:04;;;;;;;10.45;5.70;;;;;;;4.91;57.53;99635.72;5116496;28;20079;-70
2021/03/22 07:23:47;;;;;;;9.95;5.65;;;;;;;5.15;56.40;99629.28;5116293;28;20031;-70
2021/03/22 07:26:54;;;;;;;7.72;4.63;;;;;;;5.27;53.76;99639.25;5115596;28;20027;-72
2021/03/22 07:29:51;;;;;;;8.25;4.50;;;;;;;5.21;52.46;99628.09;5098001;28;20031;-74
2021/03/22 07:32:47;;;;;;;7.43;4.00;;;;;;;5.45;52.89;99634.88;5070826;28;20058;-72
2021/03/22 07:35:21;;;;;;;9.82;4.82;;;;;;;5.65;52.64;99636.53;5115978;28;20393;-73
2021/03/22 07:38:05;;;;;;;10.40;4.65;;;;;;;5.45;52.76;99648.09;5116337;28;20110;-75
2021/03/22 07:40:51;;;;;;;11.15;5.53;;;;;;;5.33;53.57;99654.00;5116382;28;20114;-75
2021/03/22 07:43:31;;;;;;;9.27;4.80;;;;;;;5.39;53.13;99643.09;5114725;28;20424;-77
2021/03/22 07:46:13;;;;;;;9.40;5.43;;;;;;;5.44;53.26;99668.41;5115637;28;20031;-78
2021/03/22 07:49:05;;;;;;;9.63;5.38;;;;;;;5.45;53.25;99671.91;5115904;28;20058;-77
2021/03/22 07:51:56;;;;;;;10.30;5.72;;;;;;;5.25;53.24;99646.41;5115921;28;20421;-81
2021/03/22 07:54:30;;;;;;;11.32;6.28;;;;;;;5.53;53.61;99677.69;5115174;28;20059;-80
2021/03/22 07:57:26;;;;;;;12.43;6.43;;;;;;;5.53;53.71;99685.63;5115445;28;20031;-75
2021/03/22 08:00:07;;;;;;;10.15;6.13;;;;;;;5.27;53.51;99689.50;5100608;28;20039;-75
2021/03/22 08:02:33;;;;;;;10.32;6.00;;;;;;;5.13;54.06;99682.22;5115821;28;20394;-77
2021/03/22 08:05:24;;;;;;;11.35;5.90;;;;;;;5.13;54.28;99684.03;5115439;28;20031;-78
2021/03/22 08:07:57;;;;;;;8.52;5.35;;;;;;;4.98;54.24;99698.78;5115872;28;20031;-77
2021/03/22 08:10:40;;;;;;;11.88;6.07;;;;;;;4.98;54.90;99706.72;5115749;28;20032;-76
2021/03/22 08:13:14;;;;;;;12.88;6.95;;;;;;;4.92;55.38;99704.34;5115716;28;20042;-77
2021/03/22 08:15:55;;;;;;;10.25;6.20;;;;;;;4.82;54.81;99700.41;5114980;28;20474;-78
2021/03/22 08:18:33;;;;;;;12.43;6.90;;;;;;;4.88;55.67;99716.00;5115394;28;20058;-78
2021/03/22 08:21:09;;;;;;;13.45;6.65;;;;;;;4.89;55.47;99717.72;5115441;28;20039;-74
2021/03/22 08:23:58;;;;;;;12.50;7.03;;;;;;;4.73;55.21;99722.84;5113512;28;20110;-78
2021/03/22 08:26:25;;;;;;;12.95;6.78;;;;;;;4.69;55.24;99726.53;5113582;28;20023;-77
2021/03/22 08:29:00;;;;;;;10.32;6.05;;;;;;;4.69;55.39;99728.31;5115172;28;20032;-75
2021/03/22 08:31:44;;;;;;;12.05;6.95;;;;;;;4.66;55.72;99716.09;5115267;28;20032;-80
2021/03/22 08:34:41;;;;;;;12.95;6.63;;;;;;;4.73;54.82;99732.53;5113849;28;20047;-77
2021/03/22 08:37:14;;;;;;;10.02;5.85;;;;;;;4.59;53.92;99710.22;5115402;28;20050;-71
2021/03/22 08:40:00;;;;;;;9.95;6.07;;;;;;;4.52;54.94;99714.06;5115054;28;20034;-75
2021/03/22 08:42:29;;;;;;;13.50;6.68;;;;;;;4.53;54.88;99715.78;5113719;28;20032;-75
2021/03/22 08:44:58;;;;;;;12.95;6.30;;;;;;;4.75;54.77;99743.91;5113118;28;20032;-77
2021/03/22 08:48:02;;;;;;;10.80;6.65;;;;;;;4.83;54.55;99755.00;5115029;28;20023;-77
2021/03/22 08:50:33;;;;;;;10.93;6.13;;;;;;;4.64;54.02;99738.25;5090627;28;20065;-72
2021/03/22 08:53:12;;;;;;;9.75;6.03;;;;;;;4.78;54.28;99754.34;5114616;28;20107;-70
2021/03/22 08:55:47;;;;;;;11.30;5.93;;;;;;;4.38;54.33;99695.34;5113022;28;20110;-73
2021/03/22 08:58:45;;;;;;;11.45;6.18;;;;;;;4.84;53.81;99762.00;5114586;28;20474;-72
2021/03/22 09:01:34;;;;;;;12.63;6.13;;;;;;;4.73;54.30;99764.22;5099807;28;20031;-76
2021/03/22 09:04:17;;;;;;;10.07;5.78;;;;;;;4.90;53.89;99767.00;5114600;28;20123;-73
2021/03/22 09:07:09;;;;;;;11.05;5.90;;;;;;;4.71;53.71;99774.00;5114300;28;20432;-76
2021/03/22 09:09:40;;;;;;;10.52;5.60;;;;;;;4.56;54.43;99768.50;5082210;28;20421;-76
2021/03/22 09:12:26;;;;;;;13.65;6.50;;;;;;;4.57;54.67;99764.06;5114099;28;20042;-76
2021/03/22 09:14:53;;;;;;;9.95;5.78;;;;;;;4.69;53.56;99773.22;5114169;28;20043;-76
2021/03/22 09:17:25;;;;;;;10.05;6.15;;;;;;;4.77;53.91;99781.69;5112690;28;20063;-75
2021/03/22 09:20:12;;;;;;;11.73;6.33;;;;;;;4.53;53.96;99758.03;5113010;28;20555;-74
2021/03/22 09:22:47;;;;;;;10.60;5.70;;;;;;;4.44;54.70;99790.16;5114190;28;20381;-80
2021/03/22 09:25:31;;;;;;;13.23;6.57;;;;;;;4.48;54.66;99775.03;5113972;28;20414;-77
2021/03/22 09:28:15;;;;;;;;;;;;;;;4.57;54.89;99791.34;5096578;28;20069;-77
2021/03/22 09:30:41;;;;;;;11.98;5.90;;;;;;;4.69;54.97;99797.00;5112559;28;20003;-75
2021/03/22 09:33:06;;;;;;;10.75;5.88;;;;;;;4.67;54.19;99791.78;5114004;28;20127;-78
2021/03/22 09:36:04;;;;;;;10.15;5.60;;;;;;;4.53;55.09;99773.03;5111686;28;20043;-78
2021/03/22 09:38:40;;;;;;;12.38;6.20;;;;;;;4.49;54.76;99769.66;5101224;28;20035;-74
2021/03/22 09:41:06;;;;;;;12.43;6.65;;;;;;;4.54;55.27;99770.34;5113817;28;20043;-73
2021/03/22 09:43:34;;;;;;;10.95;6.30;;;;;;;4.72;54.91;99788.94;5113815;28;20052;-78
2021/03/22 09:46:05;;;;;;;11.88;6.10;;;;;;;4.78;54.56;99793.97;5113492;28;20024;-76
2021/03/22 09:48:38;;;;;;;11.48;6.63;;;;;;;4.78;54.92;99812.47;5113764;28;20153;-75
2021/03/22 09:51:04;;;;;;;11.07;6.38;;;;;;;4.72;54.70;99805.66;5113772;28;20043;-74
2021/03/22 09:53:41;;;;;;;12.32;7.05;;;;;;;4.73;54.96;99806.50;5113503;28;20386;-73
2021/03/22 09:56:29;;;;;;;10.52;6.00;;;;;;;4.71;53.88;99797.78;5113312;28;20125;-75
2021/03/22 09:59:23;;;;;;;11.20;6.28;;;;;;;4.89;54.32;99808.41;5113688;28;20023;-78
2021/03/22 10:01:52;;;;;;;12.77;6.35;;;;;;;5.06;53.68;99812.97;5113571;28;20038;-74
2021/03/22 10:04:27;;;;;;;11.00;5.90;;;;;;;5.03;53.01;99789.31;5113535;28;20104;-79
2021/03/22 10:06:54;;;;;;;10.70;6.05;;;;;;;5.32;52.51;99818.88;5113251;28;20382;-77
2021/03/22 10:09:39;;;;;;;13.90;6.20;;;;;;;5.43;51.97;99803.38;5113145;28;20063;-78
2021/03/22 10:12:20;;;;;;;12.95;5.90;;;;;;;5.66;51.72;99811.09;5111384;28;20042;-78
2021/03/22 10:15:06;;;;;;;13.13;6.07;;;;;;;5.68;51.27;99809.22;5113072;28;20039;-75
2021/03/22 10:17:35;;;;;;;16.63;7.10;;;;;;;5.39;51.76;99796.50;5113113;28;20040;-75
2021/03/22 10:20:25;;;;;;;12.68;6.05;;;;;;;5.34;52.71;99817.03;5113282;28;20103;-75
2021/03/22 10:23:01;;;;;;;11.85;6.03;;;;;;;5.45;52.79;99822.66;5112027;28;20038;-76
2021/03/22 10:25:42;;;;;;;11.13;5.68;;;;;;;5.50;52.62;99814.50;5094775;28;20035;-77
2021/03/22 10:28:23;;;;;;;11.20;5.90;;;;;;;5.25;52.84;99810.34;5094920;28;20021;-73
2021/03/22 10:30:55;;;;;;;10.10;5.55;;;;;;;5.09;52.60;99802.25;5113106;28;20106;-72
2021/03/22 10:33:21;;;;;;;9.02;5.40;;;;;;;5.15;53.19;99820.50;5094873;28;20064;-75
2021/03/22 10:35:58;;;;;;;11.80;5.05;;;;;;;5.13;53.38;99830.28;5094515;28;20119;-72
2021/03/22 10:38:31;;;;;;;9.13;5.63;;;;;;;5.06;53.63;99833.25;5113169;28;20059;-72
2021/03/22 10:40:58;;;;;;;10.23;5.43;;;;;;;5.12;53.62;99831.22;5094853;28;20028;-79
2021/03/22 10:43:29;;;;;;;12.23;5.68;;;;;;;4.89;53.66;99794.34;5112915;28;20032;-78
2021/03/22 10:46:12;;;;;;;8.40;5.10;;;;;;;4.94;53.05;99810.88;5114044;28;20110;-78
2021/03/22 10:48:37;;;;;;;9.52;5.75;;;;;;;4.94;53.21;99850.53;5084148;28;20074;-78
2021/03/22 10:51:18;;;;;;;10.35;5.35;;;;;;;4.74;53.65;99811.75;5116896;28;20081;-79
2021/03/22 10:53:56;;;;;;;9.32;5.03;;;;;;;5.16;53.10;99840.72;5117122;28;20031;-77
2021/03/22 10:56:49;;;;;;;9.60;5.38;;;;;;;5.49;52.38;99847.19;5116244;28;20081;-74
2021/03/22 10:59:20;;;;;;;10.50;5.38;;;;;;;5.65;51.58;99843.78;5104081;28;20015;-76
2021/03/22 11:01:49;;;;;;;9.32;4.95;;;;;;;5.20;49.92;99807.06;5098231;28;20087;-75
2021/03/22 11:04:26;;;;;;;9.60;5.10;;;;;;;5.55;49.98;99844.28;5098299;28;20059;-79
2021/03/22 11:06:52;;;;;;;10.55;5.00;;;;;;;5.49;49.52;99812.78;5116981;28;20024;-78
2021/03/22 11:09:28;;;;;;;5.70;3.50;;;;;;;5.52;47.39;99837.34;5098638;28;20126;-78
2021/03/22 11:11:56;;;;;;;7.68;4.13;;;;;;;5.67;47.94;99841.91;5116652;28;20482;-77
2021/03/22 11:14:25;;;;;;;7.63;3.97;;;;;;;5.82;47.82;99831.56;5098257;28;20126;-76
2021/03/22 11:16:51;;;;;;;8.13;3.80;;;;;;;5.71;46.63;99832.91;5116489;28;20052;-77
2021/03/22 11:19:26;;;;;;;7.28;3.38;;;;;;;5.51;47.03;99814.47;5116613;28;20053;-78
2021/03/22 11:21:58;;;;;;;5.65;3.22;;;;;;;5.77;46.37;99828.25;5098390;28;20028;-78
2021/03/22 11:24:37;;;;;;;6.40;3.33;;;;;;;5.77;46.79;99837.03;5098284;28;20385;-78
2021/03/22 11:27:06;;;;;;;9.30;4.30;;;;;;;5.78;46.20;99827.31;5116338;28;20028;-79
2021/03/22 11:29:32;;;;;;;7.25;3.75;;;;;;;5.57;46.07;99822.09;5116496;28;20471;-75
2021/03/22 11:32:04;;;;;;;7.43;3.67;;;;;;;5.79;46.26;99807.84;5081613;28;20110;-75
2021/03/22 11:34:45;;;;;;;8.23;3.90;;;;;;;5.87;45.50;99825.09;5116248;28;20027;-76
2021/03/22 11:37:20;;;;;;;8.25;4.25;;;;;;;5.67;46.33;99825.16;5097913;28;20058;-75
2021/03/22 11:39:55;;;;;;;8.68;4.18;;;;;;;5.91;46.24;99831.16;5116198;28;20038;-78
2021/03/22 11:42:33;;;;;;;6.78;3.60;;;;;;;5.72;45.46;99826.69;5116427;28;20024;-71
2021/03/22 11:45:00;;;;;;;6.25;4.00;;;;;;;5.73;45.66;99833.69;5115747;28;20031;-79
2021/03/22 11:47:29;;;;;;;7.13;3.80;;;;;;;5.74;45.62;99834.53;5116034;28;20478;-77
2021/03/22 11:49:56;;;;;;;8.10;4.07;;;;;;;5.87;45.39;99829.53;5116333;28;20030;-80
2021/03/22 11:52:30;;;;;;;6.88;3.80;;;;;;;5.92;45.90;99835.50;5097812;28;20165;-76
2021/03/22 11:55:07;;;;;;;6.95;3.67;;;;;;;5.73;44.78;99827.53;5115101;28;20055;-79
2021/03/22 11:57:36;;;;;;;7.13;3.45;;;;;;;5.71;43.58;99808.25;5114781;28;20020;-77
2021/03/22 12:00:24;;;;;;;5.32;2.95;;;;;;;5.95;41.98;99827.41;5115886;28;20043;-75